sensor_id;sensor_type;location;lat;lon;timestamp;pressure;altitude;pressure_sealevel;temperature;humidity
10700;BME280;5401;41.986;21.452;2023-05-21T00:01:00;98077.59;;;17.15;79.36
10700;BME280;5401;41.986;21.452;2023-05-21T00:03:29;98072.09;;;17.11;80.09
10700;BME280;5401;41.986;21.452;2023-05-21T00:05:57;98074.00;;;17.10;79.60
10700;BME280;5401;41.986;21.452;2023-05-21T00:08:26;98067.47;;;17.06;79.90
10700;BME280;5401;41.986;21.452;2023-05-21T00:10:54;98068.00;;;17.03;80.27
10700;BME280;5401;41.986;21.452;2023-05-21T00:13:21;98063.09;;;17.00;80.55
10700;BME280;5401;41.986;21.452;2023-05-21T00:15:49;98067.44;;;17.01;81.35
10700;BME280;5401;41.986;21.452;2023-05-21T00:18:16;98072.03;;;17.01;80.64
10700;BME280;5401;41.986;21.452;2023-05-21T00:20:45;98076.63;;;17.00;81.54
10700;BME280;5401;41.986;21.452;2023-05-21T00:23:13;98078.00;;;17.03;81.95
10700;BME280;5401;41.986;21.452;2023-05-21T00:25:43;98072.84;;;17.01;81.77
10700;BME280;5401;41.986;21.452;2023-05-21T00:28:11;98076.34;;;16.97;80.83
10700;BME280;5401;41.986;21.452;2023-05-21T00:30:39;98088.75;;;16.93;80.89
10700;BME280;5401;41.986;21.452;2023-05-21T00:33:08;98079.00;;;16.92;81.21
10700;BME280;5401;41.986;21.452;2023-05-21T00:35:39;98076.28;;;16.92;80.72
10700;BME280;5401;41.986;21.452;2023-05-21T00:38:07;98071.97;;;16.91;81.65
10700;BME280;5401;41.986;21.452;2023-05-21T00:40:35;98084.97;;;16.94;81.62
10700;BME280;5401;41.986;21.452;2023-05-21T00:43:06;98077.88;;;16.88;81.03
10700;BME280;5401;41.986;21.452;2023-05-21T00:45:35;98079.47;;;16.84;81.18
10700;BME280;5401;41.986;21.452;2023-05-21T00:48:04;98085.19;;;16.87;81.09
10700;BME280;5401;41.986;21.452;2023-05-21T00:50:32;98083.84;;;16.90;80.87
10700;BME280;5401;41.986;21.452;2023-05-21T00:52:59;98070.06;;;16.91;81.56
10700;BME280;5401;41.986;21.452;2023-05-21T00:55:30;98069.50;;;16.89;80.64
10700;BME280;5401;41.986;21.452;2023-05-21T00:57:57;98069.19;;;16.86;81.00
10700;BME280;5401;41.986;21.452;2023-05-21T01:00:25;98067.84;;;16.83;81.09
10700;BME280;5401;41.986;21.452;2023-05-21T01:02:53;98070.28;;;16.85;80.97
10700;BME280;5401;41.986;21.452;2023-05-21T01:05:21;98054.63;;;16.87;81.24
10700;BME280;5401;41.986;21.452;2023-05-21T01:07:48;98058.69;;;16.89;80.40
10700;BME280;5401;41.986;21.452;2023-05-21T01:10:16;98051.91;;;16.87;81.37
10700;BME280;5401;41.986;21.452;2023-05-21T01:12:46;98039.44;;;16.81;81.16
10700;BME280;5401;41.986;21.452;2023-05-21T01:15:14;98042.16;;;16.86;81.14
10700;BME280;5401;41.986;21.452;2023-05-21T01:17:42;98045.13;;;16.84;81.46
10700;BME280;5401;41.986;21.452;2023-05-21T01:20:11;98035.66;;;16.82;81.39
10700;BME280;5401;41.986;21.452;2023-05-21T01:25:15;98039.84;;;16.68;81.56
10700;BME280;5401;41.986;21.452;2023-05-21T01:27:43;98045.22;;;16.63;82.11
10700;BME280;5401;41.986;21.452;2023-05-21T01:30:12;98042.53;;;16.63;82.12
10700;BME280;5401;41.986;21.452;2023-05-21T01:32:47;98045.75;;;16.60;82.69
10700;BME280;5401;41.986;21.452;2023-05-21T01:35:21;98049.78;;;16.58;82.75
10700;BME280;5401;41.986;21.452;2023-05-21T01:37:53;98050.03;;;16.56;82.16
10700;BME280;5401;41.986;21.452;2023-05-21T01:40:28;98049.22;;;16.56;82.11
10700;BME280;5401;41.986;21.452;2023-05-21T01:42:56;98050.84;;;16.57;82.06
10700;BME280;5401;41.986;21.452;2023-05-21T01:45:25;98035.59;;;16.46;82.38
10700;BME280;5401;41.986;21.452;2023-05-21T01:47:54;98048.88;;;16.47;82.66
10700;BME280;5401;41.986;21.452;2023-05-21T01:50:23;98031.72;;;16.32;82.07
10700;BME280;5401;41.986;21.452;2023-05-21T01:52:54;98049.09;;;16.41;82.56
10700;BME280;5401;41.986;21.452;2023-05-21T01:55:23;98045.81;;;16.39;82.68
10700;BME280;5401;41.986;21.452;2023-05-21T01:57:51;98031.97;;;16.31;82.15
10700;BME280;5401;41.986;21.452;2023-05-21T02:00:19;98045.81;;;16.39;82.51
10700;BME280;5401;41.986;21.452;2023-05-21T02:02:47;98033.97;;;16.40;82.72
10700;BME280;5401;41.986;21.452;2023-05-21T02:05:15;98029.38;;;16.41;82.84
10700;BME280;5401;41.986;21.452;2023-05-21T02:07:43;98032.06;;;16.41;82.21
10700;BME280;5401;41.986;21.452;2023-05-21T02:10:11;98021.19;;;16.36;82.09
10700;BME280;5401;41.986;21.452;2023-05-21T02:12:40;98027.94;;;16.33;82.53
10700;BME280;5401;41.986;21.452;2023-05-21T02:15:08;98031.44;;;16.34;82.80
10700;BME280;5401;41.986;21.452;2023-05-21T02:17:36;98015.75;;;16.31;81.91
10700;BME280;5401;41.986;21.452;2023-05-21T02:20:04;98021.97;;;16.31;82.40
10700;BME280;5401;41.986;21.452;2023-05-21T02:22:36;98018.72;;;16.29;82.28
10700;BME280;5401;41.986;21.452;2023-05-21T02:25:05;98011.69;;;16.28;82.41
10700;BME280;5401;41.986;21.452;2023-05-21T02:27:33;98022.19;;;16.25;81.97
10700;BME280;5401;41.986;21.452;2023-05-21T02:30:04;98015.97;;;16.24;82.48
10700;BME280;5401;41.986;21.452;2023-05-21T02:32:32;98017.00;;;16.18;82.63
10700;BME280;5401;41.986;21.452;2023-05-21T02:35:01;98011.50;;;16.13;82.17
10700;BME280;5401;41.986;21.452;2023-05-21T02:37:29;98020.50;;;16.19;82.74
10700;BME280;5401;41.986;21.452;2023-05-21T02:39:59;97989.78;;;16.04;82.21
10700;BME280;5401;41.986;21.452;2023-05-21T02:42:27;98021.25;;;16.14;82.64
10700;BME280;5401;41.986;21.452;2023-05-21T02:44:55;98011.50;;;16.13;82.01
10700;BME280;5401;41.986;21.452;2023-05-21T02:47:24;98006.63;;;16.10;82.56
10700;BME280;5401;41.986;21.452;2023-05-21T02:49:52;98012.50;;;16.07;82.74
10700;BME280;5401;41.986;21.452;2023-05-21T02:52:20;98004.94;;;16.05;82.92
10700;BME280;5401;41.986;21.452;2023-05-21T02:54:48;98006.81;;;16.04;82.90
10700;BME280;5401;41.986;21.452;2023-05-21T02:57:16;98010.53;;;15.98;82.66
10700;BME280;5401;41.986;21.452;2023-05-21T02:59:44;98004.78;;;15.90;82.77
10700;BME280;5401;41.986;21.452;2023-05-21T03:02:11;98005.53;;;15.85;83.31
10700;BME280;5401;41.986;21.452;2023-05-21T03:04:40;98004.97;;;15.83;83.61
10700;BME280;5401;41.986;21.452;2023-05-21T03:07:10;98005.25;;;15.82;83.80
10700;BME280;5401;41.986;21.452;2023-05-21T03:09:39;98007.38;;;15.80;84.17
10700;BME280;5401;41.986;21.452;2023-05-21T03:12:07;98016.84;;;15.82;84.39
10700;BME280;5401;41.986;21.452;2023-05-21T03:14:35;98006.25;;;15.76;84.05
10700;BME280;5401;41.986;21.452;2023-05-21T03:17:03;98004.34;;;15.76;84.19
10700;BME280;5401;41.986;21.452;2023-05-21T03:19:30;97994.78;;;15.64;84.57
10700;BME280;5401;41.986;21.452;2023-05-21T03:22:01;98012.97;;;15.73;84.66
10700;BME280;5401;41.986;21.452;2023-05-21T03:24:29;98012.97;;;15.73;84.93
10700;BME280;5401;41.986;21.452;2023-05-21T03:26:58;98005.59;;;15.69;84.83
10700;BME280;5401;41.986;21.452;2023-05-21T03:29:26;98024.34;;;15.75;85.32
10700;BME280;5401;41.986;21.452;2023-05-21T03:31:54;98021.69;;;15.80;85.16
10700;BME280;5401;41.986;21.452;2023-05-21T03:34:21;98019.28;;;15.84;85.40
10700;BME280;5401;41.986;21.452;2023-05-21T03:36:49;98012.56;;;15.86;85.47
10700;BME280;5401;41.986;21.452;2023-05-21T03:39:18;98010.75;;;15.92;85.55
10700;BME280;5401;41.986;21.452;2023-05-21T03:41:46;98002.81;;;15.85;85.64
10700;BME280;5401;41.986;21.452;2023-05-21T03:44:13;98007.22;;;15.91;85.85
10700;BME280;5401;41.986;21.452;2023-05-21T03:46:41;98016.72;;;15.94;85.57
10700;BME280;5401;41.986;21.452;2023-05-21T03:49:10;98021.28;;;15.93;85.72
10700;BME280;5401;41.986;21.452;2023-05-21T03:51:37;98021.06;;;16.00;86.17
10700;BME280;5401;41.986;21.452;2023-05-21T03:54:05;98018.94;;;16.02;86.06
10700;BME280;5401;41.986;21.452;2023-05-21T03:56:34;98012.97;;;16.00;86.37
10700;BME280;5401;41.986;21.452;2023-05-21T03:59:01;98012.16;;;15.99;86.10
10700;BME280;5401;41.986;21.452;2023-05-21T04:01:29;98017.06;;;16.02;86.14
10700;BME280;5401;41.986;21.452;2023-05-21T04:03:57;98015.22;;;16.07;85.82
10700;BME280;5401;41.986;21.452;2023-05-21T04:06:25;98026.63;;;16.14;85.88
10700;BME280;5401;41.986;21.452;2023-05-21T04:08:52;98026.72;;;16.19;85.95
10700;BME280;5401;41.986;21.452;2023-05-21T04:11:20;98023.25;;;16.24;85.53
10700;BME280;5401;41.986;21.452;2023-05-21T04:13:49;98027.06;;;16.28;85.73
10700;BME280;5401;41.986;21.452;2023-05-21T04:16:16;98026.81;;;16.29;85.42
10700;BME280;5401;41.986;21.452;2023-05-21T04:18:45;98025.22;;;16.33;85.22
10700;BME280;5401;41.986;21.452;2023-05-21T04:21:13;98024.97;;;16.35;84.96
10700;BME280;5401;41.986;21.452;2023-05-21T04:23:41;98028.50;;;16.35;85.47
10700;BME280;5401;41.986;21.452;2023-05-21T04:26:08;98027.13;;;16.33;85.42
10700;BME280;5401;41.986;21.452;2023-05-21T04:28:37;98036.75;;;16.24;85.52
10700;BME280;5401;41.986;21.452;2023-05-21T04:31:08;98026.06;;;16.12;85.48
10700;BME280;5401;41.986;21.452;2023-05-21T04:33:37;98027.44;;;16.15;86.11
10700;BME280;5401;41.986;21.452;2023-05-21T04:36:07;98028.25;;;16.15;85.98
10700;BME280;5401;41.986;21.452;2023-05-21T04:38:36;98031.31;;;16.19;86.32
10700;BME280;5401;41.986;21.452;2023-05-21T04:41:06;98032.22;;;16.29;85.98
10700;BME280;5401;41.986;21.452;2023-05-21T04:43:35;98037.41;;;16.36;85.99
10700;BME280;5401;41.986;21.452;2023-05-21T04:46:03;98028.59;;;16.45;86.17
10700;BME280;5401;41.986;21.452;2023-05-21T04:48:32;98040.50;;;16.49;85.23
10700;BME280;5401;41.986;21.452;2023-05-21T04:50:59;98033.84;;;16.56;85.21
10700;BME280;5401;41.986;21.452;2023-05-21T04:53:30;98027.66;;;16.61;85.31
10700;BME280;5401;41.986;21.452;2023-05-21T04:55:58;98030.94;;;16.68;85.38
10700;BME280;5401;41.986;21.452;2023-05-21T04:58:26;98029.34;;;16.72;84.46
10700;BME280;5401;41.986;21.452;2023-05-21T05:00:53;98027.44;;;16.72;84.57
10700;BME280;5401;41.986;21.452;2023-05-21T05:03:21;98026.72;;;16.81;84.25
10700;BME280;5401;41.986;21.452;2023-05-21T05:05:50;98024.34;;;16.90;84.20
10700;BME280;5401;41.986;21.452;2023-05-21T05:08:17;98018.75;;;17.01;84.12
10700;BME280;5401;41.986;21.452;2023-05-21T05:10:45;98014.22;;;17.12;84.17
10700;BME280;5401;41.986;21.452;2023-05-21T05:13:12;98022.66;;;17.15;83.21
10700;BME280;5401;41.986;21.452;2023-05-21T05:15:40;98019.50;;;17.28;83.67
10700;BME280;5401;41.986;21.452;2023-05-21T05:18:09;98021.47;;;17.42;82.65
10700;BME280;5401;41.986;21.452;2023-05-21T05:20:37;98019.34;;;17.54;83.22
10700;BME280;5401;41.986;21.452;2023-05-21T05:23:06;98013.69;;;17.60;82.24
10700;BME280;5401;41.986;21.452;2023-05-21T05:25:33;98014.53;;;17.71;81.68
10700;BME280;5401;41.986;21.452;2023-05-21T05:28:01;98017.53;;;17.79;82.36
10700;BME280;5401;41.986;21.452;2023-05-21T05:30:28;98009.19;;;17.86;81.84
10700;BME280;5401;41.986;21.452;2023-05-21T05:32:56;98005.13;;;17.88;81.69
10700;BME280;5401;41.986;21.452;2023-05-21T05:35:23;98012.19;;;17.94;81.46
10700;BME280;5401;41.986;21.452;2023-05-21T05:37:51;98014.91;;;17.99;81.10
10700;BME280;5401;41.986;21.452;2023-05-21T05:40:20;98011.13;;;18.05;80.55
10700;BME280;5401;41.986;21.452;2023-05-21T05:42:47;98013.91;;;18.15;81.60
10700;BME280;5401;41.986;21.452;2023-05-21T05:45:17;98003.38;;;18.28;81.25
10700;BME280;5401;41.986;21.452;2023-05-21T05:47:45;98014.75;;;18.45;80.19
10700;BME280;5401;41.986;21.452;2023-05-21T05:50:12;98005.00;;;18.54;79.93
10700;BME280;5401;41.986;21.452;2023-05-21T05:52:40;98004.72;;;18.60;79.23
10700;BME280;5401;41.986;21.452;2023-05-21T05:55:08;98006.34;;;18.76;78.51
10700;BME280;5401;41.986;21.452;2023-05-21T05:57:38;98001.72;;;18.86;78.35
10700;BME280;5401;41.986;21.452;2023-05-21T06:00:07;98009.31;;;18.94;77.48
10700;BME280;5401;41.986;21.452;2023-05-21T06:02:35;98016.66;;;19.03;77.24
10700;BME280;5401;41.986;21.452;2023-05-21T06:05:03;97996.88;;;19.03;76.49
10700;BME280;5401;41.986;21.452;2023-05-21T06:07:31;98007.38;;;19.24;76.10
10700;BME280;5401;41.986;21.452;2023-05-21T06:09:59;98020.66;;;19.30;75.05
10700;BME280;5401;41.986;21.452;2023-05-21T06:12:26;98013.88;;;19.38;75.13
10700;BME280;5401;41.986;21.452;2023-05-21T06:14:55;98004.91;;;19.42;74.66
10700;BME280;5401;41.986;21.452;2023-05-21T06:17:23;98014.34;;;19.55;74.33
10700;BME280;5401;41.986;21.452;2023-05-21T06:19:50;98017.06;;;19.60;74.21
10700;BME280;5401;41.986;21.452;2023-05-21T06:22:18;98006.72;;;19.66;73.16
10700;BME280;5401;41.986;21.452;2023-05-21T06:24:46;98013.19;;;19.80;72.87
10700;BME280;5401;41.986;21.452;2023-05-21T06:27:13;98019.13;;;19.87;72.40
10700;BME280;5401;41.986;21.452;2023-05-21T06:29:41;98010.69;;;19.94;72.15
10700;BME280;5401;41.986;21.452;2023-05-21T06:32:10;98009.81;;;20.08;71.40
10700;BME280;5401;41.986;21.452;2023-05-21T06:34:37;98009.22;;;20.16;70.92
10700;BME280;5401;41.986;21.452;2023-05-21T06:37:05;98005.41;;;20.17;70.78
10700;BME280;5401;41.986;21.452;2023-05-21T06:39:32;98008.91;;;20.17;70.54
10700;BME280;5401;41.986;21.452;2023-05-21T06:42:00;97996.75;;;20.10;70.23
10700;BME280;5401;41.986;21.452;2023-05-21T06:44:28;97996.97;;;20.18;70.34
10700;BME280;5401;41.986;21.452;2023-05-21T06:46:55;98003.16;;;20.29;70.04
10700;BME280;5401;41.986;21.452;2023-05-21T06:49:24;98003.63;;;20.40;69.80
10700;BME280;5401;41.986;21.452;2023-05-21T06:51:52;97995.06;;;20.52;69.83
10700;BME280;5401;41.986;21.452;2023-05-21T06:54:20;97993.81;;;20.77;69.33
10700;BME280;5401;41.986;21.452;2023-05-21T06:56:47;97982.06;;;21.10;69.03
10700;BME280;5401;41.986;21.452;2023-05-21T06:59:15;97997.63;;;21.79;68.12
10700;BME280;5401;41.986;21.452;2023-05-21T07:01:42;97993.16;;;22.29;66.54
10700;BME280;5401;41.986;21.452;2023-05-21T07:04:10;97997.72;;;22.52;65.76
10700;BME280;5401;41.986;21.452;2023-05-21T07:06:39;97989.03;;;22.32;65.59
10700;BME280;5401;41.986;21.452;2023-05-21T07:09:07;97983.28;;;22.33;65.95
10700;BME280;5401;41.986;21.452;2023-05-21T07:11:35;98003.34;;;22.60;65.73
10700;BME280;5401;41.986;21.452;2023-05-21T07:14:02;97997.72;;;22.70;65.21
10700;BME280;5401;41.986;21.452;2023-05-21T07:16:30;97992.16;;;22.75;64.52
10700;BME280;5401;41.986;21.452;2023-05-21T07:18:58;97988.41;;;22.90;64.29
10700;BME280;5401;41.986;21.452;2023-05-21T07:21:25;97995.91;;;22.97;64.35
10700;BME280;5401;41.986;21.452;2023-05-21T07:23:55;97988.66;;;23.20;63.92
10700;BME280;5401;41.986;21.452;2023-05-21T07:26:22;97989.69;;;23.37;63.51
10700;BME280;5401;41.986;21.452;2023-05-21T07:28:51;97994.59;;;23.53;63.01
10700;BME280;5401;41.986;21.452;2023-05-21T07:31:19;97997.47;;;23.62;62.80
10700;BME280;5401;41.986;21.452;2023-05-21T07:33:47;97989.03;;;23.58;62.43
10700;BME280;5401;41.986;21.452;2023-05-21T07:36:14;97989.44;;;23.65;62.53
10700;BME280;5401;41.986;21.452;2023-05-21T07:38:43;97989.34;;;23.70;62.22
10700;BME280;5401;41.986;21.452;2023-05-21T07:41:12;97990.78;;;23.67;62.02
10700;BME280;5401;41.986;21.452;2023-05-21T07:43:40;97992.81;;;23.75;61.94
10700;BME280;5401;41.986;21.452;2023-05-21T07:46:09;97980.44;;;23.64;61.87
10700;BME280;5401;41.986;21.452;2023-05-21T07:48:37;97979.78;;;23.54;61.76
10700;BME280;5401;41.986;21.452;2023-05-21T07:51:04;97956.72;;;23.33;62.02
10700;BME280;5401;41.986;21.452;2023-05-21T07:53:32;97958.66;;;23.33;62.01
10700;BME280;5401;41.986;21.452;2023-05-21T07:56:00;97987.53;;;23.65;61.71
10700;BME280;5401;41.986;21.452;2023-05-21T07:58:29;97985.19;;;23.59;61.40
10700;BME280;5401;41.986;21.452;2023-05-21T08:00:57;97986.19;;;23.50;61.36
10700;BME280;5401;41.986;21.452;2023-05-21T08:03:25;97981.13;;;23.57;61.32
10700;BME280;5401;41.986;21.452;2023-05-21T08:05:55;97985.09;;;23.64;61.14
10700;BME280;5401;41.986;21.452;2023-05-21T08:08:24;97978.13;;;23.58;60.72
10700;BME280;5401;41.986;21.452;2023-05-21T08:10:51;97981.16;;;23.70;60.75
10700;BME280;5401;41.986;21.452;2023-05-21T08:13:19;97979.31;;;23.79;60.25
10700;BME280;5401;41.986;21.452;2023-05-21T08:15:48;97985.69;;;23.88;60.24
10700;BME280;5401;41.986;21.452;2023-05-21T08:18:16;97984.88;;;23.87;59.85
10700;BME280;5401;41.986;21.452;2023-05-21T08:20:43;97976.50;;;23.84;59.88
10700;BME280;5401;41.986;21.452;2023-05-21T08:23:11;97971.50;;;23.99;59.35
10700;BME280;5401;41.986;21.452;2023-05-21T08:25:39;97985.47;;;24.24;58.98
10700;BME280;5401;41.986;21.452;2023-05-21T08:28:07;97993.16;;;24.57;58.15
10700;BME280;5401;41.986;21.452;2023-05-21T08:30:35;97978.81;;;24.95;57.50
10700;BME280;5401;41.986;21.452;2023-05-21T08:33:04;97974.50;;;25.33;56.79
10700;BME280;5401;41.986;21.452;2023-05-21T08:35:31;97984.53;;;25.67;55.50
10700;BME280;5401;41.986;21.452;2023-05-21T08:37:59;97978.75;;;25.69;55.02
10700;BME280;5401;41.986;21.452;2023-05-21T08:40:27;97983.22;;;25.56;54.92
10700;BME280;5401;41.986;21.452;2023-05-21T08:42:55;97984.06;;;25.65;54.74
10700;BME280;5401;41.986;21.452;2023-05-21T08:45:23;97978.75;;;25.69;54.27
10700;BME280;5401;41.986;21.452;2023-05-21T08:47:54;97985.41;;;25.84;53.65
10700;BME280;5401;41.986;21.452;2023-05-21T08:50:28;97969.88;;;25.72;53.38
10700;BME280;5401;41.986;21.452;2023-05-21T08:52:56;97972.16;;;25.40;53.38
10700;BME280;5401;41.986;21.452;2023-05-21T08:55:26;97986.16;;;25.08;53.39
10700;BME280;5401;41.986;21.452;2023-05-21T08:57:55;97964.81;;;24.97;53.64
10700;BME280;5401;41.986;21.452;2023-05-21T09:00:25;97961.97;;;25.10;53.46
10700;BME280;5401;41.986;21.452;2023-05-21T09:02:53;97978.84;;;25.25;53.05
10700;BME280;5401;41.986;21.452;2023-05-21T09:05:21;97974.09;;;25.39;52.68
10700;BME280;5401;41.986;21.452;2023-05-21T09:07:57;97978.22;;;25.58;52.10
10700;BME280;5401;41.986;21.452;2023-05-21T09:10:31;97957.91;;;25.59;52.41
10700;BME280;5401;41.986;21.452;2023-05-21T09:13:01;97981.16;;;25.62;52.21
10700;BME280;5401;41.986;21.452;2023-05-21T09:15:29;97979.69;;;25.64;51.70
10700;BME280;5401;41.986;21.452;2023-05-21T09:17:57;97977.78;;;25.73;51.85
10700;BME280;5401;41.986;21.452;2023-05-21T09:20:26;97965.59;;;25.87;51.19
10700;BME280;5401;41.986;21.452;2023-05-21T09:22:55;97948.19;;;26.09;51.31
10700;BME280;5401;41.986;21.452;2023-05-21T09:25:24;97968.28;;;26.51;50.45
10700;BME280;5401;41.986;21.452;2023-05-21T09:27:54;97956.78;;;26.66;49.69
10700;BME280;5401;41.986;21.452;2023-05-21T09:30:23;97968.75;;;27.03;49.88
10700;BME280;5401;41.986;21.452;2023-05-21T09:32:52;97959.91;;;26.81;49.73
10700;BME280;5401;41.986;21.452;2023-05-21T09:35:21;97963.44;;;26.65;49.30
10700;BME280;5401;41.986;21.452;2023-05-21T09:37:51;97964.88;;;26.54;49.65
10700;BME280;5401;41.986;21.452;2023-05-21T09:40:21;97966.50;;;26.55;49.36
10700;BME280;5401;41.986;21.452;2023-05-21T09:42:50;97962.44;;;26.36;49.47
10700;BME280;5401;41.986;21.452;2023-05-21T09:45:18;97972.22;;;26.12;49.26
10700;BME280;5401;41.986;21.452;2023-05-21T09:47:48;97952.97;;;25.86;49.32
10700;BME280;5401;41.986;21.452;2023-05-21T09:50:17;97951.19;;;25.74;48.98
10700;BME280;5401;41.986;21.452;2023-05-21T09:52:46;97955.16;;;25.59;49.38
10700;BME280;5401;41.986;21.452;2023-05-21T09:55:16;97966.47;;;25.66;48.87
10700;BME280;5401;41.986;21.452;2023-05-21T09:57:45;97966.22;;;25.84;48.32
10700;BME280;5401;41.986;21.452;2023-05-21T10:00:17;97969.28;;;25.91;47.75
10700;BME280;5401;41.986;21.452;2023-05-21T10:02:47;97955.25;;;25.84;47.56
10700;BME280;5401;41.986;21.452;2023-05-21T10:05:16;97959.16;;;26.00;47.82
10700;BME280;5401;41.986;21.452;2023-05-21T10:07:48;97970.63;;;26.02;47.65
10700;BME280;5401;41.986;21.452;2023-05-21T10:10:18;97956.41;;;26.00;47.08
10700;BME280;5401;41.986;21.452;2023-05-21T10:12:52;97951.41;;;25.94;46.79
10700;BME280;5401;41.986;21.452;2023-05-21T10:15:23;97930.38;;;25.81;47.21
10700;BME280;5401;41.986;21.452;2023-05-21T10:17:51;97937.66;;;25.85;46.66
10700;BME280;5401;41.986;21.452;2023-05-21T10:20:22;97942.31;;;25.77;46.69
10700;BME280;5401;41.986;21.452;2023-05-21T10:22:50;97939.44;;;25.82;46.51
10700;BME280;5401;41.986;21.452;2023-05-21T10:25:19;97939.44;;;25.90;46.08
10700;BME280;5401;41.986;21.452;2023-05-21T10:27:48;97933.97;;;25.90;45.61
10700;BME280;5401;41.986;21.452;2023-05-21T10:30:17;97939.16;;;26.08;45.52
10700;BME280;5401;41.986;21.452;2023-05-21T10:32:46;97937.22;;;26.17;45.59
10700;BME280;5401;41.986;21.452;2023-05-21T10:35:16;97922.53;;;26.13;45.39
10700;BME280;5401;41.986;21.452;2023-05-21T10:37:44;97927.56;;;26.19;45.07
10700;BME280;5401;41.986;21.452;2023-05-21T10:40:12;97905.06;;;26.09;45.01
10700;BME280;5401;41.986;21.452;2023-05-21T10:43:15;97928.69;;;26.35;44.08
10700;BME280;5401;41.986;21.452;2023-05-21T10:46:09;97930.66;;;26.26;44.54
10700;BME280;5401;41.986;21.452;2023-05-21T10:48:56;97913.88;;;26.28;44.27
10700;BME280;5401;41.986;21.452;2023-05-21T10:51:27;97938.38;;;26.50;43.88
10700;BME280;5401;41.986;21.452;2023-05-21T10:54:19;97923.69;;;26.29;44.10
10700;BME280;5401;41.986;21.452;2023-05-21T10:57:00;97936.63;;;26.28;43.87
10700;BME280;5401;41.986;21.452;2023-05-21T10:59:41;97917.22;;;26.25;44.09
10700;BME280;5401;41.986;21.452;2023-05-21T11:02:12;97912.09;;;26.40;43.87
10700;BME280;5401;41.986;21.452;2023-05-21T11:04:43;97910.31;;;26.44;44.09
10700;BME280;5401;41.986;21.452;2023-05-21T11:07:17;97928.38;;;26.70;43.58
10700;BME280;5401;41.986;21.452;2023-05-21T11:09:50;97914.81;;;26.57;43.92
10700;BME280;5401;41.986;21.452;2023-05-21T11:12:19;97906.56;;;26.32;43.44
10700;BME280;5401;41.986;21.452;2023-05-21T11:14:56;97892.22;;;26.26;43.99
10700;BME280;5401;41.986;21.452;2023-05-21T11:17:38;97911.41;;;26.43;43.74
10700;BME280;5401;41.986;21.452;2023-05-21T11:20:07;97909.63;;;26.55;43.18
10700;BME280;5401;41.986;21.452;2023-05-21T11:22:37;97892.34;;;26.55;42.93
10700;BME280;5401;41.986;21.452;2023-05-21T11:25:05;97913.31;;;26.76;42.86
10700;BME280;5401;41.986;21.452;2023-05-21T11:27:35;97914.78;;;26.82;42.73
10700;BME280;5401;41.986;21.452;2023-05-21T11:30:06;97907.50;;;26.78;42.90
10700;BME280;5401;41.986;21.452;2023-05-21T11:32:38;97892.97;;;26.69;42.62
10700;BME280;5401;41.986;21.452;2023-05-21T11:35:07;97896.06;;;26.59;42.83
10700;BME280;5401;41.986;21.452;2023-05-21T11:37:37;97896.72;;;26.48;42.95
10700;BME280;5401;41.986;21.452;2023-05-21T11:40:25;97895.44;;;26.45;42.85
10700;BME280;5401;41.986;21.452;2023-05-21T11:42:56;97879.44;;;26.39;43.00
10700;BME280;5401;41.986;21.452;2023-05-21T11:45:31;97889.13;;;26.45;42.94
10700;BME280;5401;41.986;21.452;2023-05-21T11:47:59;97868.31;;;26.27;42.65
10700;BME280;5401;41.986;21.452;2023-05-21T11:50:28;97885.75;;;26.31;42.77
10700;BME280;5401;41.986;21.452;2023-05-21T11:52:58;97894.66;;;26.28;42.44
10700;BME280;5401;41.986;21.452;2023-05-21T11:55:26;97895.56;;;26.15;42.86
10700;BME280;5401;41.986;21.452;2023-05-21T11:57:55;97894.75;;;26.06;43.03
10700;BME280;5401;41.986;21.452;2023-05-21T12:00:23;97895.69;;;25.85;42.95
10700;BME280;5401;41.986;21.452;2023-05-21T12:02:53;97904.56;;;25.74;43.00
10700;BME280;5401;41.986;21.452;2023-05-21T12:05:21;97891.88;;;25.47;43.37
10700;BME280;5401;41.986;21.452;2023-05-21T12:07:49;97893.41;;;25.23;43.46
10700;BME280;5401;41.986;21.452;2023-05-21T12:10:22;97892.59;;;24.93;43.50
10700;BME280;5401;41.986;21.452;2023-05-21T12:12:50;97884.38;;;24.71;44.01
10700;BME280;5401;41.986;21.452;2023-05-21T12:15:18;97891.31;;;24.69;43.83
10700;BME280;5401;41.986;21.452;2023-05-21T12:17:48;97901.13;;;24.70;43.91
10700;BME280;5401;41.986;21.452;2023-05-21T12:20:19;97898.69;;;24.68;43.85
10700;BME280;5401;41.986;21.452;2023-05-21T12:22:48;97907.41;;;24.70;44.31
10700;BME280;5401;41.986;21.452;2023-05-21T12:25:17;97886.84;;;24.51;44.15
10700;BME280;5401;41.986;21.452;2023-05-21T12:27:46;97893.59;;;24.32;44.12
10700;BME280;5401;41.986;21.452;2023-05-21T12:30:16;97905.78;;;24.26;44.39
10700;BME280;5401;41.986;21.452;2023-05-21T12:32:44;97917.75;;;24.16;44.59
10700;BME280;5401;41.986;21.452;2023-05-21T12:35:23;97904.41;;;24.01;44.29
10700;BME280;5401;41.986;21.452;2023-05-21T12:37:51;97891.59;;;23.89;44.48
10700;BME280;5401;41.986;21.452;2023-05-21T12:40:19;97915.69;;;23.87;44.64
10700;BME280;5401;41.986;21.452;2023-05-21T12:42:48;97902.06;;;23.73;44.54
10700;BME280;5401;41.986;21.452;2023-05-21T12:45:17;97911.38;;;23.59;44.36
10700;BME280;5401;41.986;21.452;2023-05-21T12:47:48;97920.38;;;23.46;44.58
10700;BME280;5401;41.986;21.452;2023-05-21T12:50:21;97912.09;;;23.11;45.42
10700;BME280;5401;41.986;21.452;2023-05-21T12:52:52;97924.41;;;22.95;45.75
10700;BME280;5401;41.986;21.452;2023-05-21T12:55:22;97927.06;;;22.82;46.49
10700;BME280;5401;41.986;21.452;2023-05-21T12:58:00;97929.56;;;22.65;46.91
10700;BME280;5401;41.986;21.452;2023-05-21T13:00:28;97907.63;;;22.39;47.48
10700;BME280;5401;41.986;21.452;2023-05-21T13:02:56;97944.25;;;22.51;47.74
10700;BME280;5401;41.986;21.452;2023-05-21T13:05:25;97929.59;;;22.47;48.19
10700;BME280;5401;41.986;21.452;2023-05-21T13:07:54;97909.75;;;22.42;48.80
10700;BME280;5401;41.986;21.452;2023-05-21T13:10:21;97937.00;;;22.60;48.93
10700;BME280;5401;41.986;21.452;2023-05-21T13:12:49;97944.00;;;22.66;48.90